Terminal Aerodrome Forecast
Issued by NWS Cleveland, OH

Home | Current Version | Previous Version | Graphics & Text | Print | Product List | Glossary On
Versions: 1 2 3 4 5 6 7 8 9 10 11 12 13 14 15 16 17 18 19 20 21 22 23 24 25 26 27
000
FTUS41 KCLE 301400 AAB
TAFMFD
TAF AMD
KMFD 301450Z 3015/0112 32010KT 3SM BR OVC003
      TEMPO 3015/3018 1SM -DZ BR OVC006
     FM301800 32009KT 6SM BR OVC006
      TEMPO 3018/3020 4SM BR OVC004
     FM302000 35006KT P6SM BKN012 OVC025
     FM302200 01003KT P6SM BKN025
     FM010400 03003KT 2SM BR OVC003=

USA.gov is the U.S. government's official web portal to all federal, state and local government web resources and services.